Time;durP1;ratioP1;P1;durP2;ratioP2;P2;SDS_P1;SDS_P2;PMS_P1;PMS_P2;Temp;Humidity;BMP_temperature;BMP_pressure;BME280_temperature;BME280_humidity;BME280_pressure;Samples;Min_cycle;Max_cycle;Signal;HPM_P1;HPM_P2
2022/12/07 00:00:16;;;;;;;157.80;51.97;;;1.50;99.90;;;;;;10341738;28;20720;-85
2022/12/07 00:05:17;;;;;;;154.10;49.17;;;1.50;99.90;;;;;;10337339;28;20041;-85
2022/12/07 00:10:17;;;;;;;145.87;51.23;;;1.50;99.90;;;;;;10345097;28;20049;-84
2022/12/07 00:15:18;;;;;;;166.60;56.27;;;1.50;99.90;;;;;;10333372;28;20034;-85
2022/12/07 00:20:18;;;;;;;176.20;53.07;;;1.50;99.90;;;;;;10327160;28;20041;-85
2022/12/07 00:25:19;;;;;;;139.27;47.97;;;1.40;99.90;;;;;;10344761;28;20042;-85
2022/12/07 00:30:19;;;;;;;169.87;51.70;;;1.50;99.90;;;;;;10337453;28;20092;-86
2022/12/07 00:35:20;;;;;;;145.60;45.37;;;1.40;99.90;;;;;;10322843;28;20456;-85
2022/12/07 00:40:20;;;;;;;168.13;51.50;;;1.40;99.90;;;;;;10340769;28;20026;-86
2022/12/07 00:45:21;;;;;;;174.93;49.83;;;1.40;99.90;;;;;;10323741;28;20501;-85
2022/12/07 00:50:21;;;;;;;178.63;55.17;;;1.50;99.90;;;;;;10348764;28;20038;-85
2022/12/07 00:55:22;;;;;;;162.60;53.17;;;1.50;99.90;;;;;;10325126;28;20494;-85
2022/12/07 01:00:22;;;;;;;134.77;46.17;;;1.50;99.90;;;;;;10338873;28;21589;-85
2022/12/07 01:05:23;;;;;;;162.47;49.07;;;1.50;99.90;;;;;;10322776;28;20046;-84
2022/12/07 01:10:23;;;;;;;159.97;46.53;;;1.50;99.90;;;;;;10323207;28;20032;-84
2022/12/07 01:15:25;;;;;;;143.03;45.70;;;1.50;99.90;;;;;;10336505;28;20046;-84
2022/12/07 01:20:26;;;;;;;142.07;47.23;;;1.50;99.90;;;;;;10330475;28;20092;-84
2022/12/07 01:25:26;;;;;;;133.03;43.40;;;1.50;99.90;;;;;;10337527;28;20134;-85
2022/12/07 01:30:27;;;;;;;138.50;43.73;;;1.50;99.90;;;;;;10323626;28;20196;-85
2022/12/07 01:35:28;;;;;;;155.73;50.47;;;1.40;99.90;;;;;;10318220;28;20065;-85
2022/12/07 01:40:28;;;;;;;168.53;51.60;;;1.50;99.90;;;;;;10319441;28;20026;-86
2022/12/07 01:45:40;;;;;;;153.33;50.13;;;1.50;99.90;;;;;;10318620;28;20018;-85
2022/12/07 01:50:43;;;;;;;155.53;47.47;;;1.50;99.90;;;;;;10319110;28;20477;-84
2022/12/07 01:55:47;;;;;;;147.43;46.00;;;1.50;99.90;;;;;;10319427;28;20058;-85
2022/12/07 02:00:48;;;;;;;158.53;53.73;;;1.50;99.90;;;;;;10318455;28;20035;-85
2022/12/07 02:05:49;;;;;;;167.77;51.23;;;1.50;99.90;;;;;;10310579;28;20031;-84
2022/12/07 02:10:50;;;;;;;180.70;51.03;;;1.50;99.90;;;;;;10319179;28;20061;-83
2022/12/07 02:16:04;;;;;;;184.30;54.73;;;1.50;99.90;;;;;;10318846;28;20038;-83
2022/12/07 02:21:31;;;;;;;180.13;55.57;;;1.50;99.90;;;;;;10319458;28;20045;-83
2022/12/07 02:26:31;;;;;;;186.50;61.92;;;1.50;99.90;;;;;;10318496;28;20042;-83
2022/12/07 02:31:32;;;;;;;222.03;66.63;;;1.50;99.90;;;;;;10318122;28;20042;-83
2022/12/07 02:36:40;;;;;;;271.43;86.07;;;1.50;99.90;;;;;;10318901;28;20490;-83
2022/12/07 02:41:48;;;;;;;274.40;87.17;;;1.50;99.90;;;;;;10318081;28;20038;-82
2022/12/07 02:47:01;;;;;;;249.73;82.77;;;1.50;99.90;;;;;;10307337;28;20026;-82
2022/12/07 02:52:01;;;;;;;233.63;79.80;;;1.50;99.90;;;;;;10324576;28;20685;-84
2022/12/07 02:57:21;;;;;;;235.60;77.07;;;1.50;99.90;;;;;;10333986;28;20054;-83
2022/12/07 03:02:48;;;;;;;225.33;74.20;;;1.50;99.90;;;;;;10333355;28;20025;-83
2022/12/07 03:07:59;;;;;;;216.77;70.20;;;1.50;99.90;;;;;;10332014;28;20058;-82
2022/12/07 03:13:19;;;;;;;209.70;60.57;;;1.50;99.90;;;;;;10343261;28;20067;-82
2022/12/07 03:18:22;;;;;;;219.70;63.30;;;1.60;99.90;;;;;;10332537;28;20038;-83
2022/12/07 03:23:25;;;;;;;173.87;54.90;;;1.50;99.90;;;;;;10337093;28;20045;-81
2022/12/07 03:28:31;;;;;;;175.77;51.80;;;1.60;99.90;;;;;;10327956;28;20129;-81
2022/12/07 03:33:44;;;;;;;155.23;48.17;;;1.60;99.90;;;;;;10355875;28;20115;-82
2022/12/07 03:38:53;;;;;;;168.53;51.77;;;1.60;99.90;;;;;;10343401;28;20544;-81
2022/12/07 03:43:55;;;;;;;158.33;46.20;;;1.60;99.90;;;;;;10335427;28;20029;-82
2022/12/07 03:49:00;;;;;;;150.57;44.30;;;1.60;99.90;;;;;;10355021;28;20038;-82
2022/12/07 03:54:24;;;;;;;172.27;50.30;;;1.60;99.90;;;;;;10338616;28;20050;-81
2022/12/07 03:59:26;;;;;;;166.67;52.47;;;1.60;99.90;;;;;;10338505;28;20830;-81
2022/12/07 04:04:27;;;;;;;185.47;56.03;;;1.60;99.90;;;;;;10330997;28;20030;-81
2022/12/07 04:09:28;;;;;;;188.80;60.37;;;1.60;99.90;;;;;;10359332;28;20401;-83
2022/12/07 04:14:28;;;;;;;226.80;65.93;;;1.60;99.90;;;;;;10351659;28;20036;-83
2022/12/07 04:19:31;;;;;;;259.23;73.33;;;1.60;99.90;;;;;;10352125;28;20573;-83
2022/12/07 04:24:33;;;;;;;206.13;62.87;;;1.60;99.90;;;;;;10328839;28;20514;-82
2022/12/07 04:29:33;;;;;;;162.97;50.37;;;1.60;99.90;;;;;;10331280;28;20475;-82
2022/12/07 04:34:34;;;;;;;155.07;50.10;;;1.60;99.90;;;;;;10333210;28;20024;-82
2022/12/07 04:39:35;;;;;;;175.03;48.70;;;1.60;99.90;;;;;;10331135;28;20038;-83
2022/12/07 04:44:35;;;;;;;141.17;42.13;;;1.60;99.90;;;;;;10338372;28;20038;-82
2022/12/07 04:49:36;;;;;;;147.97;42.90;;;1.50;99.90;;;;;;10346251;28;20053;-85
2022/12/07 04:54:37;;;;;;;143.30;42.70;;;1.50;99.90;;;;;;10324089;28;20049;-82
2022/12/07 04:59:37;;;;;;;126.57;39.23;;;1.40;99.90;;;;;;10324266;28;20050;-82
2022/12/07 05:04:38;;;;;;;121.23;34.60;;;1.50;99.90;;;;;;10319973;28;20034;-83
2022/12/07 05:09:38;;;;;;;115.33;34.20;;;1.50;99.90;;;;;;10323175;28;20381;-82
2022/12/07 05:14:39;;;;;;;106.50;32.63;;;1.40;99.90;;;;;;10336553;28;20033;-83
2022/12/07 05:19:39;;;;;;;99.07;31.90;;;1.40;99.90;;;;;;10330038;28;20561;-82
2022/12/07 05:24:40;;;;;;;90.40;30.93;;;1.40;99.90;;;;;;10338952;28;20044;-83
2022/12/07 05:29:40;;;;;;;103.27;30.00;;;1.40;99.90;;;;;;10342995;28;20065;-83
2022/12/07 05:34:41;;;;;;;88.93;26.87;;;1.40;99.90;;;;;;10342751;28;20453;-84
2022/12/07 05:39:42;;;;;;;89.07;28.00;;;1.40;99.90;;;;;;10346543;28;20033;-83
2022/12/07 05:44:45;;;;;;;86.33;27.53;;;1.40;99.90;;;;;;10353432;28;20038;-83
2022/12/07 05:49:45;;;;;;;84.70;28.57;;;1.40;99.90;;;;;;10354454;28;20441;-84
2022/12/07 05:54:46;;;;;;;75.17;25.30;;;1.30;99.90;;;;;;10342206;28;20051;-82
2022/12/07 05:59:47;;;;;;;95.80;30.00;;;1.40;99.90;;;;;;10349980;28;20572;-83
2022/12/07 06:04:47;;;;;;;96.47;29.37;;;1.40;99.90;;;;;;10360516;28;20048;-83
2022/12/07 06:09:48;;;;;;;96.03;31.23;;;1.40;99.90;;;;;;10360857;28;20132;-83
2022/12/07 06:14:48;;;;;;;83.87;27.07;;;1.40;99.90;;;;;;10360751;28;20377;-83
2022/12/07 06:19:49;;;;;;;87.53;29.83;;;1.40;99.90;;;;;;10363428;28;20466;-83
2022/12/07 06:24:50;;;;;;;77.90;27.83;;;1.40;99.90;;;;;;10367702;28;20034;-83
2022/12/07 06:29:50;;;;;;;91.50;33.27;;;1.40;99.90;;;;;;10368163;28;20061;-83
2022/12/07 06:34:51;;;;;;;78.97;27.47;;;1.30;99.90;;;;;;10355951;28;20038;-83
2022/12/07 06:39:51;;;;;;;87.13;29.40;;;1.30;99.90;;;;;;10351056;28;20107;-83
2022/12/07 06:44:52;;;;;;;91.07;28.50;;;1.30;99.90;;;;;;10353636;28;20044;-83
2022/12/07 06:49:52;;;;;;;77.73;25.67;;;1.30;99.90;;;;;;10366991;28;20030;-83
2022/12/07 06:54:53;;;;;;;75.63;26.57;;;1.30;99.90;;;;;;10352661;28;20053;-83
2022/12/07 06:59:53;;;;;;;80.30;24.77;;;1.30;99.90;;;;;;10366901;28;20030;-83
2022/12/07 07:04:54;;;;;;;79.37;24.77;;;1.30;99.90;;;;;;10366234;28;20029;-83
2022/12/07 07:09:54;;;;;;;100.87;32.70;;;1.30;99.90;;;;;;10366022;28;20034;-83
2022/12/07 07:14:55;;;;;;;116.90;42.90;;;1.30;99.90;;;;;;10364051;28;20374;-83
2022/12/07 07:19:56;;;;;;;132.67;48.43;;;1.30;99.90;;;;;;10365640;28;20030;-83
2022/12/07 07:24:56;;;;;;;163.47;54.73;;;1.30;99.90;;;;;;10363944;28;20385;-83
2022/12/07 07:29:57;;;;;;;167.53;54.90;;;1.30;99.90;;;;;;10363748;28;20045;-83
2022/12/07 07:34:57;;;;;;;163.40;51.50;;;1.30;99.90;;;;;;10365406;28;20397;-84
2022/12/07 07:39:58;;;;;;;139.87;52.00;;;1.30;99.90;;;;;;10364663;28;20037;-82
2022/12/07 07:44:58;;;;;;;149.77;48.23;;;1.30;99.90;;;;;;10364950;28;20030;-84
2022/12/07 07:49:59;;;;;;;167.63;50.97;;;1.30;99.90;;;;;;10364405;28;20037;-83
2022/12/07 07:55:00;;;;;;;177.60;50.33;;;1.40;99.90;;;;;;10350122;28;20060;-83
2022/12/07 08:00:01;;;;;;;157.30;51.17;;;1.40;99.90;;;;;;10350746;28;20425;-83
2022/12/07 08:05:01;;;;;;;170.33;53.53;;;1.40;99.90;;;;;;10364734;28;20115;-84
2022/12/07 08:10:02;;;;;;;169.77;59.00;;;1.50;99.90;;;;;;10364335;28;20056;-83
2022/12/07 08:15:03;;;;;;;154.33;51.50;;;1.50;99.90;;;;;;10364199;28;20652;-83
2022/12/07 08:20:05;;;;;;;140.43;46.23;;;1.60;99.90;;;;;;10363635;28;20038;-83
2022/12/07 08:25:06;;;;;;;150.83;51.43;;;1.60;99.90;;;;;;10363883;28;20033;-83
2022/12/07 08:30:07;;;;;;;126.53;42.93;;;1.70;99.90;;;;;;10362599;28;20393;-83
2022/12/07 08:35:08;;;;;;;131.23;51.07;;;1.70;99.90;;;;;;10362688;28;20925;-82
2022/12/07 08:40:10;;;;;;;131.53;47.93;;;1.70;99.90;;;;;;10335434;28;20031;-83
2022/12/07 08:45:14;;;;;;;103.47;35.70;;;1.80;99.90;;;;;;10362163;28;20111;-85
2022/12/07 08:50:15;;;;;;;143.27;52.00;;;1.80;99.90;;;;;;10360739;28;20045;-87
2022/12/07 08:55:15;;;;;;;186.07;73.93;;;1.80;99.90;;;;;;10347917;28;20505;-84
2022/12/07 09:00:19;;;;;;;135.47;48.33;;;1.80;99.90;;;;;;10363408;28;20065;-88
2022/12/07 09:05:20;;;;;;;121.40;47.07;;;1.80;99.90;;;;;;10348116;28;20526;-86
2022/12/07 09:10:20;;;;;;;134.50;51.23;;;1.80;99.90;;;;;;10340756;28;20042;-84
2022/12/07 09:15:21;;;;;;;146.17;53.90;;;1.70;99.90;;;;;;10353629;28;20417;-86
2022/12/07 09:20:21;;;;;;;108.47;35.53;;;1.80;99.90;;;;;;10360822;28;20501;-85
2022/12/07 09:25:22;;;;;;;117.00;36.57;;;1.80;99.90;;;;;;10359777;28;20029;-85
2022/12/07 09:30:22;;;;;;;109.20;36.23;;;1.80;99.90;;;;;;10361404;28;20039;-86
2022/12/07 09:35:24;;;;;;;134.33;39.93;;;1.80;99.90;;;;;;10359598;28;20146;-86
2022/12/07 09:40:24;;;;;;;136.77;42.73;;;1.70;99.90;;;;;;10360703;28;20022;-85
2022/12/07 09:45:30;;;;;;;144.63;44.50;;;1.80;99.90;;;;;;10344119;28;20044;-85
2022/12/07 09:50:31;;;;;;;142.73;48.25;;;1.90;99.90;;;;;;10347159;28;20111;-86
2022/12/07 09:55:33;;;;;;;154.93;49.70;;;2.00;99.90;;;;;;10346944;28;20065;-85
2022/12/07 10:00:34;;;;;;;145.40;46.57;;;2.10;99.90;;;;;;10361373;28;20081;-85
2022/12/07 10:05:42;;;;;;;161.47;48.90;;;2.10;99.90;;;;;;10360477;28;20089;-86
2022/12/07 10:10:44;;;;;;;155.70;50.73;;;2.10;99.90;;;;;;10358660;28;20026;-87
2022/12/07 10:15:44;;;;;;;150.77;49.70;;;2.20;99.90;;;;;;10359954;28;20068;-86
2022/12/07 10:20:46;;;;;;;171.60;59.70;;;2.20;99.90;;;;;;10359444;28;20745;-85
2022/12/07 10:25:49;;;;;;;205.47;70.07;;;2.40;99.90;;;;;;10351059;28;20045;-87
2022/12/07 10:31:03;;;;;;;171.10;62.87;;;2.50;99.90;;;;;;10353097;28;20033;-86
2022/12/07 10:36:35;;;;;;;157.77;59.53;;;2.60;99.90;;;;;;10352082;28;20133;-87
2022/12/07 10:41:37;;;;;;;153.50;59.27;;;2.70;99.90;;;;;;10357559;28;20044;-86
2022/12/07 10:46:53;;;;;;;161.37;65.20;;;2.70;99.90;;;;;;10358227;28;20041;-86
2022/12/07 10:52:36;;;;;;;186.67;75.10;;;2.80;99.90;;;;;;10349153;28;20121;-86
2022/12/07 10:58:02;;;;;;;189.37;70.17;;;2.80;99.90;;;;;;10313031;28;20093;-86
2022/12/07 11:03:32;;;;;;;166.13;61.38;;;2.80;99.90;;;;;;10359036;28;20033;-85
2022/12/07 11:09:23;;;;;;;175.07;67.60;;;2.90;99.90;;;;;;10359659;28;20113;-86
2022/12/07 11:14:45;;;;;;;172.30;66.10;;;2.90;99.90;;;;;;10341792;28;20056;-86
2022/12/07 11:19:54;;;;;;;143.70;55.90;;;2.90;99.90;;;;;;10366840;28;20030;-86
2022/12/07 11:25:44;;;;;;;137.03;59.07;;;2.90;99.90;;;;;;10365258;28;20102;-85
2022/12/07 11:31:09;;;;;;;198.07;80.77;;;2.90;99.90;;;;;;10318523;28;20038;-84
2022/12/07 11:36:46;;;;;;;128.57;50.43;;;2.90;99.90;;;;;;10365379;28;20114;-85
2022/12/07 11:42:00;;;;;;;142.00;55.65;;;2.90;99.90;;;;;;10365383;28;20281;-86
2022/12/07 11:47:21;;;;;;;157.70;68.70;;;2.90;99.90;;;;;;10348960;28;20147;-86
2022/12/07 11:52:30;;;;;;;155.17;59.87;;;2.90;99.90;;;;;;10352273;28;20038;-85
2022/12/07 11:57:41;;;;;;;122.30;46.13;;;3.00;99.90;;;;;;10363769;28;20088;-85
2022/12/07 12:03:10;;;;;;;100.47;38.93;;;3.10;99.90;;;;;;10351015;28;20706;-86
2022/12/07 12:08:29;;;;;;;86.90;36.33;;;3.10;99.90;;;;;;10364373;28;20113;-86
2022/12/07 12:13:59;;;;;;;72.93;29.43;;;3.00;99.90;;;;;;10363305;28;20029;-83
2022/12/07 12:19:23;;;;;;;75.60;28.60;;;3.20;99.90;;;;;;10363308;28;20560;-85
2022/12/07 12:24:26;;;;;;;56.50;22.77;;;3.30;99.90;;;;;;10353416;28;20113;-85
2022/12/07 12:29:39;;;;;;;45.73;20.67;;;3.40;99.90;;;;;;10357868;28;20056;-84
2022/12/07 12:35:19;;;;;;;46.00;18.40;;;3.40;99.90;;;;;;10362970;28;20100;-84
2022/12/07 12:40:20;;;;;;;42.70;19.87;;;3.30;99.90;;;;;;10348751;28;20585;-84
2022/12/07 12:45:31;;;;;;;44.10;20.07;;;3.10;99.90;;;;;;10361737;28;20109;-84
2022/12/07 12:50:37;;;;;;;43.10;19.73;;;3.10;99.90;;;;;;10336677;28;20518;-84
2022/12/07 12:55:54;;;;;;;42.45;18.70;;;3.10;99.90;;;;;;10334473;28;20101;-85
2022/12/07 13:01:38;;;;;;;51.03;21.33;;;3.20;99.90;;;;;;10349951;28;20038;-85
2022/12/07 13:06:41;;;;;;;58.07;23.27;;;3.20;99.90;;;;;;10327718;28;20030;-83
2022/12/07 13:11:44;;;;;;;52.57;23.97;;;3.20;99.90;;;;;;10347172;28;20709;-85
2022/12/07 13:16:45;;;;;;;45.53;21.27;;;3.10;99.90;;;;;;10346252;28;20068;-83
2022/12/07 13:21:45;;;;;;;51.60;23.90;;;3.10;99.90;;;;;;10360804;28;20465;-83
2022/12/07 13:26:46;;;;;;;67.37;30.63;;;3.00;99.90;;;;;;10346807;28;20371;-84
2022/12/07 13:31:58;;;;;;;83.47;33.90;;;3.00;99.90;;;;;;10348241;28;20096;-84
2022/12/07 13:37:11;;;;;;;96.93;43.00;;;3.00;99.90;;;;;;10330231;28;20416;-83
2022/12/07 13:42:28;;;;;;;67.70;30.73;;;3.00;99.90;;;;;;10346840;28;20033;-84
2022/12/07 13:47:36;;;;;;;70.37;31.07;;;3.00;99.90;;;;;;10360173;28;20026;-82
2022/12/07 13:52:44;;;;;;;66.60;29.30;;;2.90;99.90;;;;;;10346911;28;20042;-84
2022/12/07 13:57:51;;;;;;;66.00;29.53;;;2.90;99.90;;;;;;10351226;28;20049;-83
2022/12/07 14:02:56;;;;;;;59.23;27.30;;;2.90;99.90;;;;;;10346249;28;20489;-83
2022/12/07 14:08:04;;;;;;;66.57;28.10;;;2.90;99.90;;;;;;10352862;28;20045;-82
2022/12/07 14:13:26;;;;;;;38.73;19.33;;;2.90;99.90;;;;;;10334716;28;20049;-84
2022/12/07 14:18:40;;;;;;;39.10;18.17;;;2.90;99.90;;;;;;10348763;28;20524;-83
2022/12/07 14:23:41;;;;;;;49.80;21.20;;;2.80;99.90;;;;;;10359266;28;20065;-82
2022/12/07 14:28:43;;;;;;;61.83;26.40;;;2.80;99.90;;;;;;10350398;28;20037;-83
2022/12/07 14:33:43;;;;;;;53.90;25.07;;;2.70;99.90;;;;;;10319329;28;20048;-82
2022/12/07 14:38:44;;;;;;;50.03;22.30;;;2.70;99.90;;;;;;10349052;28;20026;-86
2022/12/07 14:43:45;;;;;;;49.27;22.17;;;2.70;99.90;;;;;;10357746;28;20042;-84
2022/12/07 14:48:45;;;;;;;60.77;26.63;;;2.60;99.90;;;;;;10367490;28;20034;-83
2022/12/07 14:53:49;;;;;;;53.17;23.87;;;2.60;99.90;;;;;;10352816;28;20061;-84
2022/12/07 14:58:50;;;;;;;70.37;27.97;;;2.50;99.90;;;;;;10349729;28;20100;-84
2022/12/07 15:03:51;;;;;;;80.50;29.77;;;2.50;99.90;;;;;;10366313;28;20080;-83
2022/12/07 15:08:52;;;;;;;64.37;25.70;;;2.50;99.90;;;;;;10346358;28;20103;-83
2022/12/07 15:14:07;;;;;;;54.97;24.37;;;2.50;99.90;;;;;;10360578;28;20107;-83
2022/12/07 15:19:19;;;;;;;33.92;17.92;;;2.50;99.90;;;;;;10343661;28;20038;-83
2022/12/07 15:24:21;;;;;;;61.10;27.10;;;2.50;99.90;;;;;;10360694;28;20044;-83
2022/12/07 15:29:22;;;;;;;92.67;37.70;;;2.50;99.90;;;;;;10361794;28;20222;-83
2022/12/07 15:34:28;;;;;;;96.97;38.10;;;2.40;99.90;;;;;;10357829;28;20026;-84
2022/12/07 15:39:28;;;;;;;;;;;2.40;99.90;;;;;;10344547;28;20022;-84
2022/12/07 15:49:48;;;;;;;58.20;25.67;;;2.40;99.90;;;;;;10346368;28;20058;-83
2022/12/07 15:54:48;;;;;;;60.63;28.67;;;2.40;99.90;;;;;;10337702;28;20054;-83
2022/12/07 15:59:49;;;;;;;54.47;24.50;;;2.40;99.90;;;;;;10346103;28;20038;-82
2022/12/07 16:04:50;;;;;;;46.40;22.90;;;2.30;99.90;;;;;;10326518;28;20091;-82
2022/12/07 16:09:51;;;;;;;64.77;25.83;;;2.30;99.90;;;;;;10353477;28;20064;-82
2022/12/07 16:14:51;;;;;;;68.10;26.83;;;2.30;99.90;;;;;;10364202;28;20113;-82
2022/12/07 16:19:53;;;;;;;56.90;24.40;;;2.30;99.90;;;;;;10364174;28;20081;-82
2022/12/07 16:24:53;;;;;;;60.00;25.87;;;2.30;99.90;;;;;;10331071;28;20022;-82
2022/12/07 16:29:54;;;;;;;55.47;25.33;;;2.10;99.90;;;;;;10348746;28;20038;-82
2022/12/07 16:34:54;;;;;;;57.13;25.67;;;2.10;99.90;;;;;;10335877;28;20121;-83
2022/12/07 16:39:55;;;;;;;61.60;26.23;;;2.10;99.90;;;;;;10331888;28;20486;-81
2022/12/07 16:44:55;;;;;;;51.30;23.70;;;2.10;99.90;;;;;;10349213;28;20038;-79
2022/12/07 16:49:56;;;;;;;94.43;34.90;;;2.20;99.90;;;;;;10343454;28;20038;-80
2022/12/07 16:54:56;;;;;;;64.20;26.10;;;2.20;99.90;;;;;;10328163;28;20439;-80
2022/12/07 16:59:58;;;;;;;47.03;21.60;;;2.20;99.90;;;;;;10348957;28;20041;-80
2022/12/07 17:04:58;;;;;;;63.27;25.13;;;2.20;99.90;;;;;;10337040;28;20044;-80
2022/12/07 17:09:59;;;;;;;59.40;24.83;;;2.20;99.90;;;;;;10333717;28;20041;-81
2022/12/07 17:15:18;;;;;;;79.20;34.70;;;2.20;99.90;;;;;;10339790;28;20026;-82
2022/12/07 17:20:19;;;;;;;98.07;39.00;;;2.20;99.90;;;;;;10343064;28;20042;-81
2022/12/07 17:25:20;;;;;;;106.10;47.10;;;2.30;99.90;;;;;;10343690;28;20110;-81
2022/12/07 17:30:21;;;;;;;81.60;40.10;;;2.30;99.90;;;;;;10341473;28;20032;-80
2022/12/07 17:35:22;;;;;;;89.67;38.60;;;2.30;99.90;;;;;;10349341;28;20025;-81
2022/12/07 17:40:22;;;;;;;88.33;39.40;;;2.30;99.90;;;;;;10329368;28;20114;-82
2022/12/07 17:45:23;;;;;;;92.93;39.53;;;2.20;99.90;;;;;;10325862;28;20537;-80
2022/12/07 17:53:09;;;;;;;87.43;37.90;;;2.30;99.90;;;;;;10327640;28;20112;-82
2022/12/07 17:55:44;;;;;;;98.83;42.40;;;2.30;99.90;;;;;;10337396;28;20705;-82
2022/12/07 18:00:44;;;;;;;82.53;35.07;;;2.20;99.90;;;;;;10329505;28;20029;-81
2022/12/07 18:05:47;;;;;;;84.60;37.03;;;2.30;99.90;;;;;;10326608;28;20493;-81
2022/12/07 18:11:07;;;;;;;82.60;38.80;;;2.30;99.90;;;;;;10313703;28;20034;-84
2022/12/07 18:16:12;;;;;;;81.57;37.87;;;2.30;99.90;;;;;;10336062;28;20096;-83
2022/12/07 18:21:15;;;;;;;67.63;30.90;;;2.30;99.90;;;;;;10352194;28;20038;-83
2022/12/07 18:26:17;;;;;;;58.23;27.20;;;2.30;99.90;;;;;;10353635;28;20624;-86
2022/12/07 18:31:19;;;;;;;65.20;27.47;;;2.30;99.90;;;;;;10340886;28;20826;-81
2022/12/07 18:36:19;;;;;;;67.63;30.70;;;2.30;99.90;;;;;;10361811;28;20053;-83
2022/12/07 18:41:20;;;;;;;70.17;34.47;;;2.20;99.90;;;;;;10362906;28;20045;-82
2022/12/07 18:46:21;;;;;;;70.07;30.03;;;2.00;99.90;;;;;;10330667;28;20026;-81
2022/12/07 18:51:22;;;;;;;79.67;33.83;;;2.00;99.90;;;;;;10338151;28;20034;-81
2022/12/07 18:56:24;;;;;;;89.83;39.53;;;1.90;99.90;;;;;;10328100;28;20046;-81
2022/12/07 19:01:25;;;;;;;115.37;48.03;;;1.90;99.90;;;;;;10336668;28;20034;-80
2022/12/07 19:06:26;;;;;;;157.03;64.50;;;1.90;99.90;;;;;;10328893;28;20583;-81
2022/12/07 19:16:51;;;;;;;92.67;39.90;;;1.90;99.90;;;;;;10330199;28;20544;-82
2022/12/07 19:21:51;;;;;;;109.47;48.03;;;1.90;99.90;;;;;;10340683;28;20037;-82
2022/12/07 19:26:52;;;;;;;118.70;51.93;;;1.90;99.90;;;;;;10337185;28;20038;-81
2022/12/07 19:31:53;;;;;;;112.53;49.23;;;1.90;99.90;;;;;;10335328;28;20049;-81
2022/12/07 19:36:53;;;;;;;106.73;49.43;;;1.90;99.90;;;;;;10352220;28;20113;-82
2022/12/07 19:41:55;;;;;;;89.87;40.50;;;1.90;99.90;;;;;;10352263;28;20030;-83
2022/12/07 19:46:58;;;;;;;108.70;49.00;;;1.90;99.90;;;;;;10340183;28;20029;-82
2022/12/07 19:52:03;;;;;;;98.70;41.00;;;2.00;99.90;;;;;;10324387;28;20030;-84
2022/12/07 19:57:05;;;;;;;107.80;46.83;;;2.00;99.90;;;;;;10320981;28;20074;-81
2022/12/07 20:02:14;;;;;;;79.63;34.30;;;2.00;99.90;;;;;;10318321;28;20452;-80
2022/12/07 20:07:15;;;;;;;66.93;28.53;;;2.10;99.90;;;;;;10319311;28;20038;-81
2022/12/07 20:17:34;;;;;;;60.83;26.50;;;2.10;99.90;;;;;;10323260;28;20038;-83
2022/12/07 20:22:35;;;;;;;67.43;27.70;;;2.20;99.90;;;;;;10324310;28;20022;-80
2022/12/07 20:27:35;;;;;;;57.80;23.73;;;2.20;99.90;;;;;;10318933;28;20578;-80
2022/12/07 20:32:36;;;;;;;67.87;30.23;;;2.20;99.90;;;;;;10324528;28;20042;-80
2022/12/07 20:37:37;;;;;;;61.57;27.87;;;2.10;99.90;;;;;;10323458;28;20030;-80
2022/12/07 20:42:37;;;;;;;59.53;26.33;;;2.10;99.90;;;;;;10319033;28;20088;-80
2022/12/07 20:47:38;;;;;;;69.07;29.80;;;2.10;99.90;;;;;;10322392;28;20035;-80
2022/12/07 20:52:38;;;;;;;72.33;30.77;;;2.10;99.90;;;;;;10318343;28;20046;-81
2022/12/07 20:57:40;;;;;;;87.73;34.40;;;2.00;99.90;;;;;;10318890;28;20505;-80
2022/12/07 21:02:41;;;;;;;93.57;38.93;;;2.00;99.90;;;;;;10326716;28;20041;-80
2022/12/07 21:07:41;;;;;;;98.30;37.63;;;2.00;99.90;;;;;;10320654;28;20058;-80
2022/12/07 21:12:42;;;;;;;82.90;34.40;;;1.90;99.90;;;;;;10319719;28;20049;-81
2022/12/07 21:17:42;;;;;;;87.10;33.40;;;1.90;99.90;;;;;;10331152;28;20037;-81
2022/12/07 21:22:43;;;;;;;83.77;33.50;;;1.80;99.90;;;;;;10322496;28;20030;-83
2022/12/07 21:27:43;;;;;;;93.10;38.97;;;1.80;99.90;;;;;;10318588;28;20039;-81
2022/12/07 21:32:44;;;;;;;110.57;42.47;;;1.70;99.90;;;;;;10317700;28;20042;-81
2022/12/07 21:37:44;;;;;;;95.27;40.57;;;1.70;99.90;;;;;;10323967;28;20069;-81
2022/12/07 21:42:45;;;;;;;133.47;52.13;;;1.70;99.90;;;;;;10316980;28;20049;-81
2022/12/07 21:47:46;;;;;;;154.20;57.37;;;1.70;99.90;;;;;;10316556;28;20033;-81
2022/12/07 21:52:46;;;;;;;151.13;56.20;;;1.70;99.90;;;;;;10316619;28;20523;-81
2022/12/07 21:57:47;;;;;;;135.27;54.33;;;1.70;99.90;;;;;;10318012;28;20051;-80
2022/12/07 22:02:47;;;;;;;120.73;50.27;;;1.80;99.90;;;;;;10315488;28;20560;-81
2022/12/07 22:07:48;;;;;;;138.33;55.57;;;1.70;99.90;;;;;;10314417;28;20035;-83
2022/12/07 22:12:48;;;;;;;142.03;60.13;;;1.80;99.90;;;;;;10319280;28;20100;-81
2022/12/07 22:17:49;;;;;;;144.57;58.80;;;1.80;99.90;;;;;;10315429;28;20046;-83
2022/12/07 22:22:50;;;;;;;142.53;57.23;;;1.80;99.90;;;;;;10314975;28;20030;-83
2022/12/07 22:27:50;;;;;;;132.60;57.20;;;1.80;99.90;;;;;;10316421;28;20454;-81
2022/12/07 22:32:51;;;;;;;144.57;61.67;;;1.70;99.90;;;;;;10317018;28;20046;-81
2022/12/07 22:37:51;;;;;;;133.83;59.27;;;1.60;99.90;;;;;;10318047;28;20026;-81
2022/12/07 22:42:52;;;;;;;119.57;51.30;;;1.50;99.90;;;;;;10319458;28;20035;-83
2022/12/07 22:47:52;;;;;;;116.53;48.90;;;1.60;99.90;;;;;;10322497;28;20038;-83
2022/12/07 22:52:53;;;;;;;102.60;43.13;;;1.60;99.90;;;;;;10314400;28;20465;-81
2022/12/07 22:57:54;;;;;;;98.03;40.73;;;1.70;99.90;;;;;;10315712;28;20046;-81
2022/12/07 23:02:54;;;;;;;96.90;39.10;;;1.70;99.90;;;;;;10324272;28;20752;-81
2022/12/07 23:07:55;;;;;;;105.47;41.87;;;1.80;99.90;;;;;;10330298;28;20104;-83
2022/12/07 23:18:15;;;;;;;96.30;40.80;;;1.80;99.90;;;;;;10323801;28;20042;-82
2022/12/07 23:23:16;;;;;;;91.00;38.90;;;1.80;99.90;;;;;;10329006;28;20034;-81
2022/12/07 23:28:17;;;;;;;87.17;37.87;;;1.80;99.90;;;;;;10322287;28;20026;-81
2022/12/07 23:33:17;;;;;;;88.37;34.83;;;1.70;99.90;;;;;;10322313;28;20035;-82
2022/12/07 23:38:18;;;;;;;93.93;40.87;;;1.60;99.90;;;;;;10322545;28;20030;-82
2022/12/07 23:43:18;;;;;;;85.53;35.40;;;1.50;99.90;;;;;;10321440;28;20084;-82
2022/12/07 23:48:19;;;;;;;80.00;35.47;;;1.40;99.90;;;;;;10324442;28;20041;-81
2022/12/07 23:53:19;;;;;;;90.33;39.50;;;1.40;99.90;;;;;;10319751;28;20101;-81
2022/12/07 23:58:20;;;;;;;97.00;39.20;;;1.40;99.90;;;;;;10327542;28;20018;-80
